Time;durP1;ratioP1;P1;durP2;ratioP2;P2;SDS_P1;SDS_P2;PMS_P1;PMS_P2;Temp;Humidity;BMP_temperature;BMP_pressure;BME280_temperature;BME280_humidity;BME280_pressure;Samples;Min_cycle;Max_cycle;Signal;HPM_P1;HPM_P2
2021/07/13 00:02:01;;;;;;;20.42;16.27;;;;;;;17.95;100.00;100398.31;4998615;28;20038;-82
2021/07/13 00:04:27;;;;;;;18.50;16.52;;;;;;;17.95;100.00;100398.31;4983363;28;20458;-83
2021/07/13 00:06:54;;;;;;;19.30;17.02;;;;;;;17.93;100.00;100396.66;4996724;28;20054;-82
2021/07/13 00:09:21;;;;;;;19.48;16.73;;;;;;;17.92;100.00;100395.81;4981764;28;20057;-81
2021/07/13 00:11:49;;;;;;;20.02;17.88;;;;;;;17.94;100.00;100391.22;4970206;28;20042;-82
2021/07/13 00:14:17;;;;;;;19.20;16.30;;;;;;;17.91;100.00;100393.22;4982489;28;20045;-83
2021/07/13 00:16:43;;;;;;;20.48;18.27;;;;;;;17.90;100.00;100386.13;4999553;28;20099;-83
2021/07/13 00:19:10;;;;;;;20.33;17.25;;;;;;;17.91;100.00;100395.91;4981029;28;20052;-83
2021/07/13 00:21:38;;;;;;;19.38;17.27;;;;;;;17.86;100.00;100385.44;4983944;28;20045;-81
2021/07/13 00:24:06;;;;;;;18.50;16.55;;;;;;;17.80;100.00;100391.13;5001694;28;20486;-82
2021/07/13 00:26:33;;;;;;;19.65;17.38;;;;;;;17.75;100.00;100392.34;4980857;28;20049;-83
2021/07/13 00:29:00;;;;;;;19.70;17.17;;;;;;;17.67;100.00;100390.91;4997772;28;20068;-83
2021/07/13 00:31:26;;;;;;;20.17;16.35;;;;;;;17.69;100.00;100393.50;4980933;28;20042;-83
2021/07/13 00:33:53;;;;;;;17.80;15.90;;;;;;;17.64;100.00;100400.88;4984792;28;20045;-82
2021/07/13 00:36:20;;;;;;;18.75;16.48;;;;;;;17.56;100.00;100403.94;4982370;28;20077;-82
2021/07/13 00:38:47;;;;;;;17.70;15.18;;;;;;;17.54;100.00;100402.31;4999701;28;20048;-83
2021/07/13 00:41:13;;;;;;;18.92;15.95;;;;;;;17.54;100.00;100402.31;5000182;28;20041;-83
2021/07/13 00:43:40;;;;;;;19.40;16.35;;;;;;;17.56;100.00;100403.94;4980123;28;20054;-82
2021/07/13 00:46:06;;;;;;;20.25;16.40;;;;;;;17.56;100.00;100403.94;4980074;28;20553;-83
2021/07/13 00:48:33;;;;;;;20.05;16.00;;;;;;;17.54;100.00;100399.66;4980848;28;20046;-82
2021/07/13 00:51:03;;;;;;;19.48;16.40;;;;;;;17.45;100.00;100396.53;4980458;28;20128;-81
2021/07/13 00:53:30;;;;;;;17.77;15.48;;;;;;;17.39;100.00;100393.31;5000705;28;20214;-82
2021/07/13 00:55:57;;;;;;;17.23;14.70;;;;;;;17.34;100.00;100388.22;4999629;28;20556;-83
2021/07/13 00:58:24;;;;;;;18.80;16.80;;;;;;;17.33;100.00;100399.00;4983970;28;20461;-83
2021/07/13 01:00:51;;;;;;;18.67;15.55;;;;;;;17.30;100.00;100389.31;4998719;28;20041;-82
2021/07/13 01:03:19;;;;;;;19.95;16.17;;;;;;;17.27;100.00;100392.16;4980388;28;20050;-81
2021/07/13 01:05:48;;;;;;;16.98;14.75;;;;;;;17.22;100.00;100391.53;4979878;28;20044;-83
2021/07/13 01:08:30;;;;;;;19.45;15.60;;;;;;;17.19;100.00;100391.69;4968347;28;20042;-81
2021/07/13 01:11:02;;;;;;;19.23;15.23;;;;;;;17.15;100.00;100393.66;4995576;28;20057;-81
2021/07/13 01:13:33;;;;;;;19.50;16.20;;;;;;;17.16;100.00;100386.53;4983666;28;20056;-80
2021/07/13 01:16:06;;;;;;;20.52;16.77;;;;;;;17.17;100.00;100393.59;5015321;28;20080;-83
2021/07/13 01:18:37;;;;;;;21.42;17.27;;;;;;;17.13;100.00;100386.66;4999388;28;20495;-81
2021/07/13 01:21:33;;;;;;;19.50;15.75;;;;;;;17.04;100.00;100396.00;4998698;28;20044;-83
2021/07/13 01:24:13;;;;;;;18.85;15.90;;;;;;;17.00;100.00;100386.44;4980224;28;20111;-83
2021/07/13 01:26:40;;;;;;;18.48;16.45;;;;;;;17.03;100.00;100385.41;4965790;28;20046;-83
2021/07/13 01:29:16;;;;;;;19.17;16.75;;;;;;;16.98;100.00;100388.31;4999294;28;20526;-82
2021/07/13 01:31:44;;;;;;;18.40;15.85;;;;;;;16.88;100.00;100385.25;4981392;28;20057;-80
2021/07/13 01:34:21;;;;;;;18.45;16.25;;;;;;;16.86;100.00;100384.47;4999400;28;20053;-81
2021/07/13 01:36:52;;;;;;;18.67;15.68;;;;;;;16.83;100.00;100384.63;4998526;28;20045;-81
2021/07/13 01:39:20;;;;;;;17.02;15.10;;;;;;;16.80;100.00;100383.91;4999708;28;20099;-82
2021/07/13 01:41:51;;;;;;;20.27;16.52;;;;;;;16.75;100.00;100386.84;4982419;28;20041;-82
2021/07/13 01:44:20;;;;;;;17.80;15.57;;;;;;;16.76;100.00;100387.69;4999270;28;20107;-83
2021/07/13 01:46:49;;;;;;;21.10;17.17;;;;;;;16.82;100.00;100387.38;4981075;28;20098;-82
2021/07/13 01:49:19;;;;;;;21.40;17.33;;;;;;;16.77;100.00;100382.28;4994592;28;20674;-82
2021/07/13 01:51:48;;;;;;;19.77;15.48;;;;;;;16.65;100.00;100382.88;4984700;28;20560;-82
2021/07/13 01:54:16;;;;;;;17.98;15.98;;;;;;;16.63;100.00;100382.06;4983023;28;20050;-82
2021/07/13 01:56:53;;;;;;;21.58;16.75;;;;;;;16.65;100.00;100387.31;5000551;28;20038;-79
2021/07/13 01:59:20;;;;;;;20.45;17.00;;;;;;;16.70;100.00;100374.66;5020067;28;20109;-79
2021/07/13 02:01:47;;;;;;;17.48;15.57;;;;;;;16.68;100.00;100382.72;4998879;28;20410;-80
2021/07/13 02:04:14;;;;;;;18.25;15.68;;;;;;;16.65;100.00;100380.19;4996654;28;20056;-82
2021/07/13 02:06:42;;;;;;;21.38;16.75;;;;;;;16.56;100.00;100384.19;5001643;28;20048;-79
2021/07/13 02:09:11;;;;;;;17.95;15.50;;;;;;;16.51;100.00;100385.34;4987220;28;20045;-82
2021/07/13 02:11:38;;;;;;;19.65;17.00;;;;;;;16.45;100.00;100381.16;5002066;28;20441;-80
2021/07/13 02:14:05;;;;;;;18.20;16.00;;;;;;;16.43;100.00;100371.53;4987511;28;20045;-80
2021/07/13 02:16:32;;;;;;;18.50;15.82;;;;;;;16.35;100.00;100374.56;4967981;28;20092;-80
2021/07/13 02:18:58;;;;;;;18.73;15.07;;;;;;;16.33;100.00;100371.13;5060182;23;20557;-82
2021/07/13 02:21:25;;;;;;;19.20;15.32;;;;;;;16.26;100.00;100359.88;4974903;28;20033;-82
2021/07/13 02:23:52;;;;;;;17.17;14.75;;;;;;;16.19;100.00;100369.13;5001011;28;20103;-82
2021/07/13 02:26:30;;;;;;;20.17;16.05;;;;;;;16.16;100.00;100363.94;4997362;28;20049;-82
2021/07/13 02:29:05;;;;;;;18.00;14.82;;;;;;;16.18;100.00;100362.06;4964333;28;20116;-82
2021/07/13 02:31:34;;;;;;;18.70;15.80;;;;;;;16.27;100.00;100358.94;4983116;28;20609;-82
2021/07/13 02:34:09;;;;;;;20.15;15.85;;;;;;;16.32;100.00;100350.72;4971268;28;20098;-82
2021/07/13 02:36:42;;;;;;;22.17;16.63;;;;;;;16.26;100.00;100364.34;4944321;28;20042;-81
2021/07/13 02:39:09;;;;;;;19.02;15.77;;;;;;;16.13;100.00;100358.72;4960546;28;20404;-82
2021/07/13 02:41:38;;;;;;;17.70;15.15;;;;;;;16.04;100.00;100376.03;4943687;28;20041;-82
2021/07/13 02:44:05;;;;;;;18.65;15.90;;;;;;;16.07;100.00;100371.53;4961111;28;20053;-82
2021/07/13 02:46:33;;;;;;;18.20;15.52;;;;;;;16.09;100.00;100370.50;4956857;28;20046;-82
2021/07/13 02:49:00;;;;;;;20.02;16.95;;;;;;;16.09;100.00;100367.84;4963885;28;20049;-82
2021/07/13 02:51:28;;;;;;;20.65;17.50;;;;;;;16.18;100.00;100364.72;4978936;28;20487;-82
2021/07/13 02:53:55;;;;;;;19.33;15.73;;;;;;;16.07;100.00;100371.53;4996947;28;20042;-82
2021/07/13 02:56:25;;;;;;;21.55;16.65;;;;;;;16.03;100.00;100376.09;4952876;28;20050;-82
2021/07/13 02:58:55;;;;;;;20.80;16.27;;;;;;;16.09;100.00;100366.97;4976606;28;20057;-82
2021/07/13 03:01:23;;;;;;;18.52;15.60;;;;;;;16.05;100.00;100375.09;4946564;28;20504;-82
2021/07/13 03:03:50;;;;;;;20.73;17.00;;;;;;;16.00;100.00;100371.81;4979648;28;20041;-82
2021/07/13 03:06:19;;;;;;;18.90;15.38;;;;;;;15.92;100.00;100373.97;4994973;28;20050;-82
2021/07/13 03:08:45;;;;;;;20.65;15.35;;;;;;;15.89;100.00;100375.88;4978697;28;20446;-82
2021/07/13 03:11:12;;;;;;;20.88;16.20;;;;;;;15.90;100.00;100378.50;4994464;28;20533;-82
2021/07/13 03:13:40;;;;;;;17.90;16.00;;;;;;;15.88;100.00;100382.16;5012046;28;20073;-82
2021/07/13 03:16:10;;;;;;;18.58;15.60;;;;;;;15.92;100.00;100376.63;4977733;28;20550;-82
2021/07/13 03:18:36;;;;;;;18.45;15.60;;;;;;;15.92;100.00;100383.75;4978347;28;20081;-82
2021/07/13 03:21:04;;;;;;;18.90;16.73;;;;;;;15.96;100.00;100388.00;4977951;28;20411;-82
2021/07/13 03:23:36;;;;;;;23.17;16.52;;;;;;;15.93;100.00;100393.47;4944024;28;20100;-82
2021/07/13 03:26:03;;;;;;;18.73;15.27;;;;;;;15.91;100.00;100390.03;4958591;28;20057;-81
2021/07/13 03:28:30;;;;;;;22.15;15.32;;;;;;;15.94;100.00;100387.22;4993757;28;20100;-81
2021/07/13 03:30:58;;;;;;;20.48;16.00;;;;;;;15.94;100.00;100379.22;4993820;28;20462;-82
2021/07/13 03:33:25;;;;;;;18.58;15.10;;;;;;;15.96;100.00;100377.34;4943983;28;20078;-81
2021/07/13 03:35:56;;;;;;;19.48;16.17;;;;;;;16.04;100.00;100377.84;4991261;28;20109;-81
2021/07/13 03:38:22;;;;;;;19.35;16.00;;;;;;;15.98;100.00;100381.69;5011494;28;20046;-81
2021/07/13 03:40:50;;;;;;;17.85;15.30;;;;;;;16.01;100.00;100388.66;4977863;28;20061;-82
2021/07/13 03:43:17;;;;;;;18.98;16.23;;;;;;;16.06;100.00;100381.31;4995813;28;20132;-82
2021/07/13 03:45:44;;;;;;;20.65;16.48;;;;;;;16.14;100.00;100375.59;4994220;28;20042;-81
2021/07/13 03:48:11;;;;;;;20.73;16.40;;;;;;;16.19;100.00;100376.25;4981639;28;20570;-83
2021/07/13 03:50:38;;;;;;;19.63;16.30;;;;;;;16.22;100.00;100376.94;4942915;28;20137;-82
2021/07/13 03:53:05;;;;;;;19.27;15.63;;;;;;;16.26;100.00;100375.88;4959552;28;20061;-82
2021/07/13 03:55:32;;;;;;;17.83;15.93;;;;;;;16.17;100.00;100375.47;4958446;28;20522;-82
2021/07/13 03:57:58;;;;;;;20.13;17.33;;;;;;;16.27;100.00;100369.59;4959488;28;20415;-81
2021/07/13 04:00:27;;;;;;;20.10;16.48;;;;;;;16.19;100.00;100365.59;4957626;28;20141;-82
2021/07/13 04:02:55;;;;;;;20.17;16.30;;;;;;;16.23;100.00;100365.38;4959391;28;20051;-82
2021/07/13 04:05:22;;;;;;;19.33;15.50;;;;;;;16.29;100.00;100365.06;4961083;28;20460;-82
2021/07/13 04:07:48;;;;;;;21.63;16.15;;;;;;;16.33;100.00;100360.47;4983199;28;20054;-83
2021/07/13 04:10:16;;;;;;;18.70;15.98;;;;;;;16.38;100.00;100360.22;4957855;28;20042;-82
2021/07/13 04:12:43;;;;;;;21.70;16.52;;;;;;;16.44;100.00;100360.78;4971227;28;20062;-82
2021/07/13 04:15:11;;;;;;;17.98;15.82;;;;;;;16.53;100.00;100356.78;4993524;28;20161;-82
2021/07/13 04:17:38;;;;;;;18.15;15.20;;;;;;;16.59;100.00;100354.69;4977632;28;20129;-83
2021/07/13 04:20:05;;;;;;;18.95;16.65;;;;;;;16.74;100.00;100360.22;4989737;28;20046;-82
2021/07/13 04:22:32;;;;;;;19.40;15.68;;;;;;;16.77;100.00;100360.94;4990404;28;20106;-83
2021/07/13 04:25:04;;;;;;;17.58;14.73;;;;;;;16.84;100.00;100354.34;4977165;28;20603;-83
2021/07/13 04:27:31;;;;;;;18.10;16.20;;;;;;;16.94;100.00;100352.06;4958245;28;20082;-81
2021/07/13 04:29:58;;;;;;;20.38;17.05;;;;;;;17.02;100.00;100359.69;4943973;28;20050;-81
2021/07/13 04:32:29;;;;;;;19.63;15.68;;;;;;;17.11;100.00;100353.84;4971314;28;20041;-82
2021/07/13 04:34:56;;;;;;;18.77;14.95;;;;;;;17.19;100.00;100350.78;4977940;28;20461;-82
2021/07/13 04:37:24;;;;;;;18.58;15.38;;;;;;;17.27;100.00;100357.44;4992754;28;20092;-81
2021/07/13 04:39:52;;;;;;;19.13;15.77;;;;;;;17.33;100.00;100351.78;4977452;28;20526;-81
2021/07/13 04:42:18;;;;;;;18.27;15.25;;;;;;;17.38;100.00;100349.72;4965687;28;20047;-82
2021/07/13 04:44:45;;;;;;;18.27;15.98;;;;;;;17.45;100.00;100345.78;4958930;28;20065;-81
2021/07/13 04:47:12;;;;;;;18.73;15.23;;;;;;;17.53;100.00;100341.84;4941559;28;20054;-81
2021/07/13 04:49:38;;;;;;;17.30;14.93;;;;;;;17.58;100.00;100342.47;4969520;28;20526;-82
2021/07/13 04:52:06;;;;;;;16.15;14.45;;;;;;;17.66;100.00;100341.09;4960266;28;20109;-82
2021/07/13 04:54:33;;;;;;;17.50;15.00;;;;;;;17.69;100.00;100335.56;4990472;28;20053;-83
2021/07/13 04:57:01;;;;;;;18.90;15.20;;;;;;;17.77;100.00;100342.34;4948742;28;20042;-82
2021/07/13 04:59:28;;;;;;;16.23;13.98;;;;;;;17.81;100.00;100343.88;4977178;28;20046;-81
2021/07/13 05:01:55;;;;;;;17.85;14.88;;;;;;;17.87;100.00;100340.88;4968724;28;20030;-82
2021/07/13 05:04:22;;;;;;;17.70;15.05;;;;;;;18.12;100.00;100343.91;4974498;28;20111;-82
2021/07/13 05:06:49;;;;;;;15.77;13.73;;;;;;;18.34;100.00;100350.72;4972802;28;20645;-82
2021/07/13 05:09:17;;;;;;;16.30;14.10;;;;;;;18.33;100.00;100339.16;4976958;28;20077;-81
2021/07/13 05:11:43;;;;;;;17.75;14.27;;;;;;;18.37;100.00;100342.50;4990171;28;20084;-83
2021/07/13 05:14:10;;;;;;;17.00;14.93;;;;;;;18.25;100.00;100342.25;4977210;28;20045;-81
2021/07/13 05:16:36;;;;;;;14.73;13.13;;;;;;;18.44;100.00;100330.50;5008116;28;20045;-81
2021/07/13 05:19:03;;;;;;;16.48;13.65;;;;;;;18.50;100.00;100338.16;4976309;28;20057;-81
2021/07/13 05:21:30;;;;;;;15.80;13.75;;;;;;;18.47;100.00;100346.34;4956412;28;20085;-82
2021/07/13 05:23:58;;;;;;;15.43;13.07;;;;;;;18.42;100.00;100349.31;4977606;28;20045;-82
2021/07/13 05:26:25;;;;;;;14.35;12.60;;;;;;;18.39;100.00;100354.81;4970163;28;20046;-82
2021/07/13 05:28:52;;;;;;;17.40;14.30;;;;;;;18.40;100.00;100348.50;4976925;28;20049;-82
2021/07/13 05:31:19;;;;;;;15.95;13.35;;;;;;;18.40;100.00;100353.88;4991950;28;20037;-82
2021/07/13 05:33:45;;;;;;;17.10;15.30;;;;;;;18.63;100.00;100355.22;4960852;28;20111;-82
2021/07/13 05:36:12;;;;;;;16.90;14.48;;;;;;;18.73;100.00;100355.56;4974590;28;20057;-82
2021/07/13 05:38:39;;;;;;;16.73;14.50;;;;;;;18.72;100.00;100354.69;4975970;28;20054;-81
2021/07/13 05:41:05;;;;;;;16.50;14.32;;;;;;;18.80;100.00;100354.25;4990575;28;20127;-82
2021/07/13 05:43:32;;;;;;;14.45;12.45;;;;;;;18.87;100.00;100363.66;4976251;28;20049;-82
2021/07/13 05:45:59;;;;;;;15.27;12.90;;;;;;;18.93;100.00;100359.75;4975079;28;20388;-83
2021/07/13 05:48:25;;;;;;;15.00;13.45;;;;;;;19.03;100.00;100355.56;4973728;28;20045;-82
2021/07/13 05:50:52;;;;;;;15.32;13.73;;;;;;;19.18;100.00;100362.66;4975265;28;20057;-82
2021/07/13 05:53:19;;;;;;;16.95;13.13;;;;;;;19.73;100.00;100364.63;5052979;22;21069;-84
2021/07/13 05:55:46;;;;;;;13.50;12.10;;;;;;;20.07;100.00;100367.84;5013907;28;20045;-83
2021/07/13 05:58:13;;;;;;;14.98;12.45;;;;;;;20.32;100.00;100377.84;5012469;28;20052;-83
2021/07/13 06:00:41;;;;;;;12.77;11.43;;;;;;;21.68;100.00;100372.13;5027004;28;20079;-84
2021/07/13 06:03:08;;;;;;;12.73;10.30;;;;;;;23.05;90.89;100377.28;5014356;28;20045;-84
2021/07/13 06:05:35;;;;;;;9.82;8.82;;;;;;;24.08;77.26;100378.13;5030609;28;20041;-84
2021/07/13 06:08:02;;;;;;;11.23;10.23;;;;;;;24.52;77.65;100373.66;5029763;28;20568;-83
2021/07/13 06:10:28;;;;;;;11.57;10.48;;;;;;;24.55;77.48;100382.38;5007580;28;20044;-83
2021/07/13 06:12:55;;;;;;;10.25;9.25;;;;;;;24.87;70.75;100367.97;4998697;28;20083;-83
2021/07/13 06:15:22;;;;;;;9.75;8.85;;;;;;;25.55;72.34;100372.88;5013666;28;20041;-83
2021/07/13 06:17:49;;;;;;;10.90;9.93;;;;;;;25.58;72.39;100377.16;5014864;28;20183;-83
2021/07/13 06:20:16;;;;;;;10.82;9.80;;;;;;;25.47;69.98;100372.69;5026643;28;20099;-83
2021/07/13 06:22:42;;;;;;;10.20;9.13;;;;;;;24.95;72.81;100373.59;5014337;28;20044;-83
2021/07/13 06:25:10;;;;;;;10.35;9.35;;;;;;;25.15;71.10;100371.94;5030941;28;20053;-81
2021/07/13 06:27:36;;;;;;;9.90;9.00;;;;;;;25.02;73.96;100369.38;5014596;28;20049;-82
2021/07/13 06:30:05;;;;;;;9.70;8.80;;;;;;;25.29;73.93;100368.03;5030448;28;20449;-83
2021/07/13 06:32:32;;;;;;;9.75;8.88;;;;;;;25.45;72.38;100366.56;4997855;28;20083;-82
2021/07/13 06:34:59;;;;;;;10.23;9.23;;;;;;;25.69;72.09;100363.53;5014664;28;20530;-83
2021/07/13 06:37:26;;;;;;;9.98;9.05;;;;;;;25.86;73.04;100369.34;4997416;28;20529;-81
2021/07/13 06:39:53;;;;;;;9.52;8.73;;;;;;;25.94;69.31;100361.41;5014054;28;20567;-82
2021/07/13 06:42:19;;;;;;;9.00;8.13;;;;;;;26.00;68.53;100368.97;4998533;28;20045;-83
2021/07/13 06:44:46;;;;;;;8.88;8.02;;;;;;;26.00;67.65;100360.84;5018583;28;20075;-82
2021/07/13 06:47:13;;;;;;;9.02;8.20;;;;;;;26.24;68.68;100361.34;5000811;28;20048;-82
2021/07/13 06:49:40;;;;;;;9.32;8.43;;;;;;;26.23;70.48;100361.47;5026398;28;20341;-82
2021/07/13 06:52:07;;;;;;;10.07;9.18;;;;;;;26.42;67.92;100356.13;5016932;28;20090;-82
2021/07/13 06:54:34;;;;;;;9.00;8.10;;;;;;;26.51;68.99;100355.28;5018248;28;20041;-82
2021/07/13 06:57:00;;;;;;;9.80;8.93;;;;;;;26.51;67.79;100354.44;5013312;28;20165;-81
2021/07/13 06:59:27;;;;;;;8.57;7.78;;;;;;;26.61;67.67;100352.59;5037523;28;20135;-82
2021/07/13 07:01:54;;;;;;;8.52;7.70;;;;;;;26.69;66.16;100347.31;5001835;28;20095;-82
2021/07/13 07:04:22;;;;;;;7.47;6.78;;;;;;;26.34;63.58;100347.81;5003344;28;20518;-82
2021/07/13 07:06:49;;;;;;;7.03;6.43;;;;;;;26.28;62.48;100342.97;5013253;28;20506;-81
2021/07/13 07:09:15;;;;;;;7.28;6.63;;;;;;;26.54;63.41;100346.88;5019437;28;20094;-82
2021/07/13 07:11:42;;;;;;;7.07;6.47;;;;;;;26.56;63.91;100338.59;5016601;28;20041;-82
2021/07/13 07:14:09;;;;;;;7.97;7.07;;;;;;;26.66;60.79;100336.78;5009495;28;20472;-82
2021/07/13 07:16:35;;;;;;;7.60;6.90;;;;;;;26.02;62.24;100337.22;5001818;28;20040;-81
2021/07/13 07:19:02;;;;;;;6.90;6.30;;;;;;;26.31;64.65;100332.69;5032108;28;20552;-82
2021/07/13 07:21:29;;;;;;;6.53;5.93;;;;;;;26.52;67.51;100337.19;5017576;28;20091;-82
2021/07/13 07:23:56;;;;;;;6.70;6.07;;;;;;;26.50;61.84;100331.06;5017420;28;20501;-82
2021/07/13 07:26:23;;;;;;;6.85;6.25;;;;;;;26.70;59.75;100330.06;5019069;28;20045;-82
2021/07/13 07:28:49;;;;;;;6.65;5.88;;;;;;;26.82;59.28;100334.34;5037155;28;20036;-81
2021/07/13 07:31:18;;;;;;;7.72;6.18;;;;;;;26.69;60.19;100325.63;5019657;28;20732;-82
2021/07/13 07:33:45;;;;;;;6.38;5.80;;;;;;;26.98;64.12;100325.59;5037538;28;20575;-82
2021/07/13 07:36:12;;;;;;;6.82;6.13;;;;;;;27.19;61.30;100328.16;5035749;28;20044;-82
2021/07/13 07:38:40;;;;;;;6.80;6.20;;;;;;;27.37;63.61;100320.97;5020177;28;20539;-82
2021/07/13 07:41:07;;;;;;;6.13;5.53;;;;;;;27.57;61.76;100320.91;5035700;28;20048;-82
2021/07/13 07:43:34;;;;;;;7.45;6.75;;;;;;;27.53;58.99;100311.34;5020962;28;20037;-80
2021/07/13 07:46:00;;;;;;;6.57;5.90;;;;;;;27.22;61.39;100322.44;5004562;28;20103;-81
2021/07/13 07:48:27;;;;;;;7.10;6.35;;;;;;;27.44;62.97;100313.97;5016715;28;20045;-82
2021/07/13 07:50:54;;;;;;;6.68;6.07;;;;;;;27.63;62.41;100325.75;5015336;28;20045;-82
2021/07/13 07:53:20;;;;;;;7.10;6.45;;;;;;;27.53;59.38;100324.94;5016318;28;20041;-81
2021/07/13 07:55:47;;;;;;;7.13;6.35;;;;;;;27.49;60.15;100317.09;5005757;28;20587;-82
2021/07/13 07:58:14;;;;;;;7.60;6.68;;;;;;;27.87;58.55;100317.09;5018700;28;20124;-82
2021/07/13 08:00:40;;;;;;;6.80;6.20;;;;;;;27.95;58.12;100311.75;5015463;28;20106;-83
2021/07/13 08:03:10;;;;;;;6.93;6.22;;;;;;;27.94;57.27;100324.47;5017147;28;20056;-81
2021/07/13 08:05:37;;;;;;;7.22;6.53;;;;;;;27.94;56.08;100318.19;5015613;28;20049;-81
2021/07/13 08:08:04;;;;;;;6.60;6.00;;;;;;;27.84;58.93;100322.84;5016715;28;20099;-82
2021/07/13 08:10:31;;;;;;;8.23;7.43;;;;;;;27.53;57.52;100319.50;5013688;28;20534;-81
2021/07/13 08:12:58;;;;;;;7.22;6.63;;;;;;;27.74;56.49;100314.72;5020091;28;20497;-82
2021/07/13 08:15:26;;;;;;;7.53;6.82;;;;;;;27.60;57.55;100326.06;5034999;28;20665;-82
2021/07/13 08:17:53;;;;;;;7.28;6.57;;;;;;;27.59;59.09;100317.06;5036747;28;20048;-80
2021/07/13 08:20:20;;;;;;;7.97;6.78;;;;;;;27.34;55.37;100320.44;5013010;28;20075;-81
2021/07/13 08:22:48;;;;;;;8.00;6.78;;;;;;;27.28;55.73;100318.28;5056834;28;20492;-81
2021/07/13 08:25:16;;;;;;;7.13;6.43;;;;;;;27.55;57.96;100315.63;5054777;28;20067;-81
2021/07/13 08:27:47;;;;;;;8.10;6.60;;;;;;;27.73;56.44;100323.88;5039400;28;20052;-83
2021/07/13 08:30:14;;;;;;;7.63;6.93;;;;;;;27.42;59.54;100312.41;5038700;28;20590;-81
2021/07/13 08:32:41;;;;;;;7.93;7.00;;;;;;;27.41;56.21;100308.84;5037746;28;20040;-83
2021/07/13 08:35:09;;;;;;;7.38;6.75;;;;;;;27.45;56.09;100310.25;5056677;28;20097;-85
2021/07/13 08:37:36;;;;;;;7.47;6.82;;;;;;;27.45;56.78;100310.25;5040334;28;20044;-83
2021/07/13 08:40:07;;;;;;;7.38;6.03;;;;;;;27.65;58.11;100310.16;5032881;28;20190;-82
2021/07/13 08:42:39;;;;;;;7.57;6.88;;;;;;;28.00;58.18;100304.88;4999730;28;20073;-83
2021/07/13 08:45:11;;;;;;;7.22;6.53;;;;;;;27.95;55.78;100303.63;5053348;23;20050;-82
2021/07/13 08:47:42;;;;;;;6.57;5.97;;;;;;;28.18;55.58;100309.47;4961574;28;20056;-82
2021/07/13 08:50:10;;;;;;;6.75;6.15;;;;;;;27.92;53.94;100314.78;4956605;28;20585;-83
2021/07/13 08:52:37;;;;;;;6.00;5.43;;;;;;;28.17;55.34;100314.06;4989259;28;20041;-83
2021/07/13 08:55:05;;;;;;;7.10;4.82;;;;;;;28.18;50.16;100312.19;4988211;28;20046;-81
2021/07/13 08:57:32;;;;;;;5.40;4.90;;;;;;;28.05;52.30;100309.84;4986631;28;20491;-83
2021/07/13 08:59:58;;;;;;;5.47;4.97;;;;;;;28.17;52.20;100307.78;4953899;28;20047;-83
2021/07/13 09:02:25;;;;;;;4.97;4.57;;;;;;;28.09;52.49;100300.38;4937030;28;20063;-83
2021/07/13 09:04:52;;;;;;;5.38;4.88;;;;;;;28.29;49.74;100295.69;4953555;28;20050;-84
2021/07/13 09:07:18;;;;;;;6.32;4.82;;;;;;;28.54;49.84;100296.78;4953984;28;20050;-83
2021/07/13 09:09:52;;;;;;;5.28;4.78;;;;;;;28.67;51.56;100291.81;4973563;28;20077;-82
2021/07/13 09:12:22;;;;;;;;;;;;;;;28.45;51.46;100301.28;4985842;28;20042;-83
2021/07/13 09:14:56;;;;;;;5.70;5.20;;;;;;;28.66;51.07;100300.13;4957423;28;19937;-82
2021/07/13 09:17:43;;;;;;;5.57;5.18;;;;;;;28.63;51.44;100295.84;4956429;28;20046;-83
2021/07/13 09:20:22;;;;;;;4.20;3.80;;;;;;;28.35;47.55;100302.38;4989008;28;20046;-83
2021/07/13 09:22:58;;;;;;;5.88;4.45;;;;;;;28.43;50.61;100300.59;4971994;28;20105;-82
2021/07/13 09:25:33;;;;;;;3.97;3.63;;;;;;;28.59;47.16;100298.03;4971616;28;20483;-83
2021/07/13 09:28:22;;;;;;;3.75;3.40;;;;;;;28.62;46.64;100293.28;4990203;28;20125;-83
2021/07/13 09:30:54;;;;;;;4.43;4.03;;;;;;;28.56;48.17;100300.19;4976308;28;20061;-82
2021/07/13 09:33:39;;;;;;;4.03;3.67;;;;;;;27.76;47.20;100297.28;4972309;28;20540;-84
2021/07/13 09:36:16;;;;;;;4.88;3.80;;;;;;;27.94;47.53;100293.75;4964170;28;20045;-83
2021/07/13 09:38:46;;;;;;;4.13;3.72;;;;;;;28.54;48.93;100284.06;4968086;28;20050;-83
2021/07/13 09:41:24;;;;;;;4.82;4.40;;;;;;;27.97;47.21;100290.72;4974798;28;20077;-84
2021/07/13 09:44:04;;;;;;;4.60;4.13;;;;;;;28.11;50.27;100286.66;4959793;28;20046;-83
2021/07/13 09:46:44;;;;;;;11.52;4.60;;;;;;;28.04;47.03;100284.53;4987560;28;20043;-84
2021/07/13 09:49:12;;;;;;;6.05;4.38;;;;;;;27.74;50.70;100285.72;4946269;28;20042;-84
2021/07/13 09:51:41;;;;;;;4.28;3.88;;;;;;;27.62;49.40;100288.75;4972322;28;20039;-84
2021/07/13 09:54:30;;;;;;;4.63;4.22;;;;;;;27.38;51.60;100283.84;4990764;28;20451;-85
2021/07/13 09:56:59;;;;;;;4.50;4.10;;;;;;;27.64;51.85;100284.03;4972669;28;20038;-84
2021/07/13 09:59:26;;;;;;;4.68;4.20;;;;;;;28.21;50.66;100273.84;4968970;28;20076;-84
2021/07/13 10:01:53;;;;;;;6.18;4.47;;;;;;;28.67;48.43;100270.06;4960921;28;20042;-84
2021/07/13 10:04:20;;;;;;;6.70;4.47;;;;;;;28.38;47.63;100270.31;4946249;28;20048;-84
2021/07/13 10:06:49;;;;;;;5.90;4.45;;;;;;;27.71;50.10;100277.03;4969876;28;20117;-84
2021/07/13 10:09:17;;;;;;;5.55;4.63;;;;;;;27.64;51.04;100268.59;4985090;28;20070;-84
2021/07/13 10:11:44;;;;;;;5.90;4.90;;;;;;;27.69;50.67;100260.03;4961158;28;20854;-84
2021/07/13 10:14:11;;;;;;;5.20;4.70;;;;;;;27.74;51.50;100265.84;4964055;28;20402;-83
2021/07/13 10:16:38;;;;;;;5.25;4.32;;;;;;;27.64;50.93;100273.16;4953656;28;20047;-81
2021/07/13 10:19:07;;;;;;;4.65;4.18;;;;;;;27.80;51.49;100270.69;4960667;28;20133;-81
2021/07/13 10:21:35;;;;;;;4.90;4.50;;;;;;;27.80;49.94;100262.53;4948281;28;20444;-83
2021/07/13 10:24:02;;;;;;;5.65;4.53;;;;;;;27.82;51.73;100263.22;4972936;28;20109;-83
2021/07/13 10:26:47;;;;;;;6.82;4.75;;;;;;;27.44;49.52;100266.97;4971950;28;20069;-83
2021/07/13 10:29:33;;;;;;;4.97;4.57;;;;;;;27.99;50.96;100261.56;4953332;28;20046;-82
2021/07/13 10:32:02;;;;;;;5.22;4.53;;;;;;;28.03;49.07;100265.69;4968739;28;20050;-82
2021/07/13 10:34:44;;;;;;;7.85;4.57;;;;;;;28.07;48.79;100258.06;4982161;28;20066;-81
2021/07/13 10:37:25;;;;;;;4.97;4.32;;;;;;;27.68;48.87;100256.47;4961439;28;20042;-83
2021/07/13 10:39:54;;;;;;;9.05;5.05;;;;;;;27.76;53.84;100266.59;4966481;28;20454;-82
2021/07/13 10:42:39;;;;;;;5.03;4.63;;;;;;;27.72;50.07;100259.72;4950457;28;20050;-82
2021/07/13 10:45:13;;;;;;;5.05;4.55;;;;;;;28.03;51.39;100266.53;4982447;28;20055;-82
2021/07/13 10:48:02;;;;;;;5.68;4.80;;;;;;;27.98;51.35;100266.13;4986686;28;20038;-84
2021/07/13 10:50:28;;;;;;;5.28;4.78;;;;;;;27.92;51.37;100266.78;4981537;28;20098;-83
2021/07/13 10:53:08;;;;;;;5.40;4.43;;;;;;;28.05;51.54;100259.09;4981797;28;20109;-83
2021/07/13 10:55:34;;;;;;;5.18;4.68;;;;;;;28.33;49.01;100256.31;4962218;28;20388;-82
2021/07/13 10:58:10;;;;;;;4.80;4.10;;;;;;;28.30;47.56;100264.81;4979002;28;20692;-81
2021/07/13 11:06:06;;;;;;;4.85;4.13;;;;;;;28.69;48.09;100256.31;4966031;28;20113;-81
2021/07/13 11:08:38;;;;;;;5.07;4.53;;;;;;;28.32;48.27;100251.91;4979912;28;20042;-82
2021/07/13 11:11:09;;;;;;;4.80;4.30;;;;;;;27.88;48.32;100248.22;4987938;28;20388;-81
2021/07/13 11:13:37;;;;;;;4.68;4.07;;;;;;;27.65;48.39;100255.88;4983187;28;20031;-82
2021/07/13 11:16:04;;;;;;;4.78;4.20;;;;;;;27.78;49.60;100259.13;4965594;28;20050;-81
2021/07/13 11:18:35;;;;;;;5.85;4.57;;;;;;;27.51;48.03;100253.69;4962579;28;20507;-82
2021/07/13 11:21:35;;;;;;;5.15;4.70;;;;;;;27.59;49.46;100261.94;4954803;28;20057;-81
2021/07/13 11:24:08;;;;;;;5.20;4.70;;;;;;;27.84;48.94;100261.25;4955939;28;20127;-80
2021/07/13 11:26:38;;;;;;;6.65;5.22;;;;;;;27.90;51.41;100257.91;4963518;28;20046;-82